sensor_id;sensor_type;location;lat;lon;timestamp;P1;durP1;ratioP1;P2;durP2;ratioP2
47161;SDS011;32921;53.256;8.198;2022-08-25T00:00:58;9.75;;;3.25;;
47161;SDS011;32921;53.256;8.198;2022-08-25T00:03:24;7.35;;;3.13;;
47161;SDS011;32921;53.256;8.198;2022-08-25T00:05:50;7.53;;;2.95;;
47161;SDS011;32921;53.256;8.198;2022-08-25T00:08:15;9.05;;;3.00;;
47161;SDS011;32921;53.256;8.198;2022-08-25T00:10:41;12.13;;;3.40;;
47161;SDS011;32921;53.256;8.198;2022-08-25T00:13:06;10.52;;;3.53;;
47161;SDS011;32921;53.256;8.198;2022-08-25T00:15:33;6.95;;;3.65;;
47161;SDS011;32921;53.256;8.198;2022-08-25T00:17:58;10.45;;;3.28;;
47161;SDS011;32921;53.256;8.198;2022-08-25T00:20:25;7.88;;;3.53;;
47161;SDS011;32921;53.256;8.198;2022-08-25T00:22:53;10.00;;;3.75;;
47161;SDS011;32921;53.256;8.198;2022-08-25T00:25:20;7.90;;;3.60;;
47161;SDS011;32921;53.256;8.198;2022-08-25T00:27:47;9.70;;;3.83;;
47161;SDS011;32921;53.256;8.198;2022-08-25T00:30:14;11.27;;;3.47;;
47161;SDS011;32921;53.256;8.198;2022-08-25T00:32:41;12.18;;;3.97;;
47161;SDS011;32921;53.256;8.198;2022-08-25T00:35:06;8.77;;;3.97;;
47161;SDS011;32921;53.256;8.198;2022-08-25T00:37:32;11.35;;;3.65;;
47161;SDS011;32921;53.256;8.198;2022-08-25T00:39:58;5.90;;;3.58;;
47161;SDS011;32921;53.256;8.198;2022-08-25T00:42:24;11.75;;;3.70;;
47161;SDS011;32921;53.256;8.198;2022-08-25T00:44:50;7.68;;;3.50;;
47161;SDS011;32921;53.256;8.198;2022-08-25T00:47:16;7.85;;;3.60;;
47161;SDS011;32921;53.256;8.198;2022-08-25T00:49:42;6.72;;;3.75;;
47161;SDS011;32921;53.256;8.198;2022-08-25T00:52:21;9.93;;;3.78;;
47161;SDS011;32921;53.256;8.198;2022-08-25T00:54:59;6.68;;;3.60;;
47161;SDS011;32921;53.256;8.198;2022-08-25T00:57:26;9.50;;;4.40;;
47161;SDS011;32921;53.256;8.198;2022-08-25T00:59:55;8.85;;;4.20;;
47161;SDS011;32921;53.256;8.198;2022-08-25T01:02:21;8.27;;;3.70;;
47161;SDS011;32921;53.256;8.198;2022-08-25T01:04:47;12.90;;;4.10;;
47161;SDS011;32921;53.256;8.198;2022-08-25T01:07:13;6.97;;;3.92;;
47161;SDS011;32921;53.256;8.198;2022-08-25T01:09:40;7.32;;;4.00;;
47161;SDS011;32921;53.256;8.198;2022-08-25T01:12:07;9.93;;;4.65;;
47161;SDS011;32921;53.256;8.198;2022-08-25T01:14:33;7.65;;;4.15;;
47161;SDS011;32921;53.256;8.198;2022-08-25T01:17:00;10.52;;;4.32;;
47161;SDS011;32921;53.256;8.198;2022-08-25T01:19:27;8.73;;;4.70;;
47161;SDS011;32921;53.256;8.198;2022-08-25T01:21:53;8.43;;;4.47;;
47161;SDS011;32921;53.256;8.198;2022-08-25T01:24:23;9.93;;;4.15;;
47161;SDS011;32921;53.256;8.198;2022-08-25T01:26:56;7.68;;;4.22;;
47161;SDS011;32921;53.256;8.198;2022-08-25T01:29:22;10.40;;;4.80;;
47161;SDS011;32921;53.256;8.198;2022-08-25T01:31:50;6.40;;;4.18;;
47161;SDS011;32921;53.256;8.198;2022-08-25T01:34:21;7.75;;;4.63;;
47161;SDS011;32921;53.256;8.198;2022-08-25T01:36:47;7.38;;;4.53;;
47161;SDS011;32921;53.256;8.198;2022-08-25T01:39:13;7.43;;;4.88;;
47161;SDS011;32921;53.256;8.198;2022-08-25T01:44:34;7.70;;;4.53;;
47161;SDS011;32921;53.256;8.198;2022-08-25T01:50:23;10.75;;;4.90;;
47161;SDS011;32921;53.256;8.198;2022-08-25T01:53:10;9.77;;;4.45;;
47161;SDS011;32921;53.256;8.198;2022-08-25T01:56:14;8.20;;;4.53;;
47161;SDS011;32921;53.256;8.198;2022-08-25T02:01:45;9.63;;;4.75;;
47161;SDS011;32921;53.256;8.198;2022-08-25T02:04:10;8.57;;;4.90;;
47161;SDS011;32921;53.256;8.198;2022-08-25T02:06:37;9.88;;;5.18;;
47161;SDS011;32921;53.256;8.198;2022-08-25T02:09:04;14.57;;;4.85;;
47161;SDS011;32921;53.256;8.198;2022-08-25T02:11:34;8.95;;;4.60;;
47161;SDS011;32921;53.256;8.198;2022-08-25T02:14:01;9.90;;;4.75;;
47161;SDS011;32921;53.256;8.198;2022-08-25T02:16:30;11.10;;;4.63;;
47161;SDS011;32921;53.256;8.198;2022-08-25T02:19:33;8.18;;;4.63;;
47161;SDS011;32921;53.256;8.198;2022-08-25T02:21:59;9.70;;;4.80;;
47161;SDS011;32921;53.256;8.198;2022-08-25T02:24:25;11.90;;;4.80;;
47161;SDS011;32921;53.256;8.198;2022-08-25T02:26:50;11.10;;;4.85;;
47161;SDS011;32921;53.256;8.198;2022-08-25T02:29:16;8.73;;;5.13;;
47161;SDS011;32921;53.256;8.198;2022-08-25T02:31:42;9.57;;;5.32;;
47161;SDS011;32921;53.256;8.198;2022-08-25T02:34:08;9.23;;;5.00;;
47161;SDS011;32921;53.256;8.198;2022-08-25T02:36:35;10.20;;;5.05;;
47161;SDS011;32921;53.256;8.198;2022-08-25T02:39:02;7.78;;;4.60;;
47161;SDS011;32921;53.256;8.198;2022-08-25T02:41:29;8.60;;;4.97;;
47161;SDS011;32921;53.256;8.198;2022-08-25T02:43:55;8.75;;;5.18;;
47161;SDS011;32921;53.256;8.198;2022-08-25T02:46:21;8.20;;;5.22;;
47161;SDS011;32921;53.256;8.198;2022-08-25T02:48:48;9.15;;;5.50;;
47161;SDS011;32921;53.256;8.198;2022-08-25T02:51:15;12.50;;;5.65;;
47161;SDS011;32921;53.256;8.198;2022-08-25T02:53:41;12.10;;;5.80;;
47161;SDS011;32921;53.256;8.198;2022-08-25T02:56:09;9.50;;;5.28;;
47161;SDS011;32921;53.256;8.198;2022-08-25T02:58:36;8.80;;;5.80;;
47161;SDS011;32921;53.256;8.198;2022-08-25T03:01:02;10.57;;;5.47;;
47161;SDS011;32921;53.256;8.198;2022-08-25T03:03:28;11.25;;;5.53;;
47161;SDS011;32921;53.256;8.198;2022-08-25T03:05:53;13.43;;;5.85;;
47161;SDS011;32921;53.256;8.198;2022-08-25T03:08:20;9.40;;;5.13;;
47161;SDS011;32921;53.256;8.198;2022-08-25T03:10:46;13.95;;;6.10;;
47161;SDS011;32921;53.256;8.198;2022-08-25T03:13:11;13.07;;;6.10;;
47161;SDS011;32921;53.256;8.198;2022-08-25T03:15:43;10.27;;;6.05;;
47161;SDS011;32921;53.256;8.198;2022-08-25T03:18:09;14.27;;;5.97;;
47161;SDS011;32921;53.256;8.198;2022-08-25T03:20:35;9.70;;;6.75;;
47161;SDS011;32921;53.256;8.198;2022-08-25T03:23:02;11.65;;;6.55;;
47161;SDS011;32921;53.256;8.198;2022-08-25T03:25:29;10.80;;;5.68;;
47161;SDS011;32921;53.256;8.198;2022-08-25T03:28:13;15.50;;;6.65;;
47161;SDS011;32921;53.256;8.198;2022-08-25T03:30:39;11.45;;;6.57;;
47161;SDS011;32921;53.256;8.198;2022-08-25T03:33:05;11.43;;;6.75;;
47161;SDS011;32921;53.256;8.198;2022-08-25T03:35:31;12.80;;;6.53;;
47161;SDS011;32921;53.256;8.198;2022-08-25T03:37:57;11.25;;;7.00;;
47161;SDS011;32921;53.256;8.198;2022-08-25T03:40:23;11.35;;;7.18;;
47161;SDS011;32921;53.256;8.198;2022-08-25T03:42:49;14.63;;;7.90;;
47161;SDS011;32921;53.256;8.198;2022-08-25T03:45:15;9.93;;;6.90;;
47161;SDS011;32921;53.256;8.198;2022-08-25T03:47:44;12.20;;;7.05;;
47161;SDS011;32921;53.256;8.198;2022-08-25T03:50:12;14.27;;;7.50;;
47161;SDS011;32921;53.256;8.198;2022-08-25T03:52:38;15.35;;;7.57;;
47161;SDS011;32921;53.256;8.198;2022-08-25T03:55:04;11.60;;;8.07;;
47161;SDS011;32921;53.256;8.198;2022-08-25T03:57:39;15.02;;;7.75;;
47161;SDS011;32921;53.256;8.198;2022-08-25T04:00:06;13.68;;;7.68;;
47161;SDS011;32921;53.256;8.198;2022-08-25T04:02:33;10.10;;;8.02;;
47161;SDS011;32921;53.256;8.198;2022-08-25T04:04:59;12.10;;;8.35;;
47161;SDS011;32921;53.256;8.198;2022-08-25T04:07:25;11.27;;;8.00;;
47161;SDS011;32921;53.256;8.198;2022-08-25T04:09:52;14.02;;;8.27;;
47161;SDS011;32921;53.256;8.198;2022-08-25T04:12:18;14.25;;;8.45;;
47161;SDS011;32921;53.256;8.198;2022-08-25T04:14:44;12.52;;;8.20;;
47161;SDS011;32921;53.256;8.198;2022-08-25T04:17:09;15.55;;;9.95;;
47161;SDS011;32921;53.256;8.198;2022-08-25T04:19:35;17.20;;;8.77;;
47161;SDS011;32921;53.256;8.198;2022-08-25T04:22:02;13.45;;;8.90;;
47161;SDS011;32921;53.256;8.198;2022-08-25T04:24:27;14.68;;;8.90;;
47161;SDS011;32921;53.256;8.198;2022-08-25T04:26:53;15.18;;;8.85;;
47161;SDS011;32921;53.256;8.198;2022-08-25T04:29:21;15.48;;;9.18;;
47161;SDS011;32921;53.256;8.198;2022-08-25T04:31:48;13.57;;;8.88;;
47161;SDS011;32921;53.256;8.198;2022-08-25T04:34:17;15.05;;;8.80;;
47161;SDS011;32921;53.256;8.198;2022-08-25T04:36:44;13.52;;;9.25;;
47161;SDS011;32921;53.256;8.198;2022-08-25T04:39:10;14.05;;;9.50;;
47161;SDS011;32921;53.256;8.198;2022-08-25T04:41:36;14.40;;;9.80;;
47161;SDS011;32921;53.256;8.198;2022-08-25T04:44:01;14.88;;;9.27;;
47161;SDS011;32921;53.256;8.198;2022-08-25T04:46:28;12.93;;;10.10;;
47161;SDS011;32921;53.256;8.198;2022-08-25T04:48:56;20.95;;;10.45;;
47161;SDS011;32921;53.256;8.198;2022-08-25T04:51:24;15.23;;;10.68;;
47161;SDS011;32921;53.256;8.198;2022-08-25T04:53:57;14.98;;;10.32;;
47161;SDS011;32921;53.256;8.198;2022-08-25T04:56:24;13.38;;;10.32;;
47161;SDS011;32921;53.256;8.198;2022-08-25T04:58:50;20.88;;;10.82;;
47161;SDS011;32921;53.256;8.198;2022-08-25T05:01:17;15.13;;;10.48;;
47161;SDS011;32921;53.256;8.198;2022-08-25T05:03:45;18.23;;;10.88;;
47161;SDS011;32921;53.256;8.198;2022-08-25T05:06:13;16.65;;;11.23;;
47161;SDS011;32921;53.256;8.198;2022-08-25T05:08:39;17.17;;;10.63;;
47161;SDS011;32921;53.256;8.198;2022-08-25T05:11:08;15.00;;;10.80;;
47161;SDS011;32921;53.256;8.198;2022-08-25T05:13:38;13.10;;;10.98;;
47161;SDS011;32921;53.256;8.198;2022-08-25T05:16:05;16.77;;;11.27;;
47161;SDS011;32921;53.256;8.198;2022-08-25T05:18:32;16.95;;;10.68;;
47161;SDS011;32921;53.256;8.198;2022-08-25T05:21:17;20.25;;;11.90;;
47161;SDS011;32921;53.256;8.198;2022-08-25T05:23:45;21.00;;;11.38;;
47161;SDS011;32921;53.256;8.198;2022-08-25T05:26:17;22.65;;;12.63;;
47161;SDS011;32921;53.256;8.198;2022-08-25T05:28:44;19.33;;;12.02;;
47161;SDS011;32921;53.256;8.198;2022-08-25T05:31:11;21.30;;;11.77;;
47161;SDS011;32921;53.256;8.198;2022-08-25T05:33:39;14.82;;;12.18;;
47161;SDS011;32921;53.256;8.198;2022-08-25T05:36:06;17.05;;;12.50;;
47161;SDS011;32921;53.256;8.198;2022-08-25T05:38:32;17.27;;;12.38;;
47161;SDS011;32921;53.256;8.198;2022-08-25T05:40:58;17.90;;;12.27;;
47161;SDS011;32921;53.256;8.198;2022-08-25T05:43:26;20.40;;;12.48;;
47161;SDS011;32921;53.256;8.198;2022-08-25T05:45:55;17.33;;;12.57;;
47161;SDS011;32921;53.256;8.198;2022-08-25T05:48:22;18.08;;;12.65;;
47161;SDS011;32921;53.256;8.198;2022-08-25T05:50:52;16.55;;;12.82;;
47161;SDS011;32921;53.256;8.198;2022-08-25T05:53:19;16.73;;;12.95;;
47161;SDS011;32921;53.256;8.198;2022-08-25T05:55:46;17.58;;;12.73;;
47161;SDS011;32921;53.256;8.198;2022-08-25T05:58:11;20.80;;;13.02;;
47161;SDS011;32921;53.256;8.198;2022-08-25T06:00:38;20.95;;;12.65;;
47161;SDS011;32921;53.256;8.198;2022-08-25T06:03:04;18.85;;;12.73;;
47161;SDS011;32921;53.256;8.198;2022-08-25T06:05:30;19.95;;;13.60;;
47161;SDS011;32921;53.256;8.198;2022-08-25T06:07:56;18.00;;;13.30;;
47161;SDS011;32921;53.256;8.198;2022-08-25T06:10:23;17.75;;;12.45;;
47161;SDS011;32921;53.256;8.198;2022-08-25T06:12:49;21.05;;;14.98;;
47161;SDS011;32921;53.256;8.198;2022-08-25T06:15:16;22.10;;;14.15;;
47161;SDS011;32921;53.256;8.198;2022-08-25T06:17:45;19.30;;;13.25;;
47161;SDS011;32921;53.256;8.198;2022-08-25T06:20:13;21.13;;;13.10;;
47161;SDS011;32921;53.256;8.198;2022-08-25T06:22:41;20.52;;;13.90;;
47161;SDS011;32921;53.256;8.198;2022-08-25T06:25:07;22.40;;;14.88;;
47161;SDS011;32921;53.256;8.198;2022-08-25T06:27:35;25.00;;;14.02;;
47161;SDS011;32921;53.256;8.198;2022-08-25T06:30:00;21.77;;;14.35;;
47161;SDS011;32921;53.256;8.198;2022-08-25T06:32:30;18.80;;;13.88;;
47161;SDS011;32921;53.256;8.198;2022-08-25T06:34:56;22.23;;;14.00;;
47161;SDS011;32921;53.256;8.198;2022-08-25T06:37:23;27.60;;;14.88;;
47161;SDS011;32921;53.256;8.198;2022-08-25T06:39:49;23.92;;;14.32;;
47161;SDS011;32921;53.256;8.198;2022-08-25T06:42:15;23.67;;;13.98;;
47161;SDS011;32921;53.256;8.198;2022-08-25T06:44:40;20.67;;;13.07;;
47161;SDS011;32921;53.256;8.198;2022-08-25T06:47:06;23.73;;;12.63;;
47161;SDS011;32921;53.256;8.198;2022-08-25T06:49:32;23.83;;;12.77;;
47161;SDS011;32921;53.256;8.198;2022-08-25T06:51:57;19.10;;;11.77;;
47161;SDS011;32921;53.256;8.198;2022-08-25T06:54:23;24.23;;;12.38;;
47161;SDS011;32921;53.256;8.198;2022-08-25T06:56:49;16.58;;;11.88;;
47161;SDS011;32921;53.256;8.198;2022-08-25T06:59:15;21.58;;;11.98;;
47161;SDS011;32921;53.256;8.198;2022-08-25T07:01:41;16.30;;;11.40;;
47161;SDS011;32921;53.256;8.198;2022-08-25T07:04:07;23.75;;;12.27;;
47161;SDS011;32921;53.256;8.198;2022-08-25T07:06:33;22.05;;;11.82;;
47161;SDS011;32921;53.256;8.198;2022-08-25T07:08:59;15.27;;;11.15;;
47161;SDS011;32921;53.256;8.198;2022-08-25T07:11:25;18.63;;;11.43;;
47161;SDS011;32921;53.256;8.198;2022-08-25T07:13:51;18.40;;;10.30;;
47161;SDS011;32921;53.256;8.198;2022-08-25T07:16:18;15.77;;;10.85;;
47161;SDS011;32921;53.256;8.198;2022-08-25T07:18:45;17.50;;;10.90;;
47161;SDS011;32921;53.256;8.198;2022-08-25T07:21:11;19.83;;;10.52;;
47161;SDS011;32921;53.256;8.198;2022-08-25T07:23:39;19.42;;;10.57;;
47161;SDS011;32921;53.256;8.198;2022-08-25T07:26:16;16.80;;;10.60;;
47161;SDS011;32921;53.256;8.198;2022-08-25T07:28:44;18.85;;;9.65;;
47161;SDS011;32921;53.256;8.198;2022-08-25T07:31:10;18.02;;;10.68;;
47161;SDS011;32921;53.256;8.198;2022-08-25T07:33:36;15.82;;;9.65;;
47161;SDS011;32921;53.256;8.198;2022-08-25T07:36:02;16.67;;;9.10;;
47161;SDS011;32921;53.256;8.198;2022-08-25T07:38:28;14.15;;;9.52;;
47161;SDS011;32921;53.256;8.198;2022-08-25T07:41:03;17.67;;;9.75;;
47161;SDS011;32921;53.256;8.198;2022-08-25T07:43:29;15.07;;;9.80;;
47161;SDS011;32921;53.256;8.198;2022-08-25T07:45:54;16.05;;;9.57;;
47161;SDS011;32921;53.256;8.198;2022-08-25T07:48:20;18.55;;;10.02;;
47161;SDS011;32921;53.256;8.198;2022-08-25T07:50:46;22.58;;;9.63;;
47161;SDS011;32921;53.256;8.198;2022-08-25T07:53:13;19.48;;;9.90;;
47161;SDS011;32921;53.256;8.198;2022-08-25T07:55:40;15.88;;;9.13;;
47161;SDS011;32921;53.256;8.198;2022-08-25T07:58:07;15.80;;;9.05;;
47161;SDS011;32921;53.256;8.198;2022-08-25T08:00:34;16.23;;;9.05;;
47161;SDS011;32921;53.256;8.198;2022-08-25T08:03:02;16.23;;;8.27;;
47161;SDS011;32921;53.256;8.198;2022-08-25T08:05:29;14.55;;;9.45;;
47161;SDS011;32921;53.256;8.198;2022-08-25T08:07:55;16.60;;;8.45;;
47161;SDS011;32921;53.256;8.198;2022-08-25T08:10:21;20.75;;;9.18;;
47161;SDS011;32921;53.256;8.198;2022-08-25T08:12:47;16.95;;;8.95;;
47161;SDS011;32921;53.256;8.198;2022-08-25T08:15:13;16.85;;;8.98;;
47161;SDS011;32921;53.256;8.198;2022-08-25T08:17:39;19.63;;;9.05;;
47161;SDS011;32921;53.256;8.198;2022-08-25T08:20:06;14.52;;;8.38;;
47161;SDS011;32921;53.256;8.198;2022-08-25T08:22:34;11.63;;;8.00;;
47161;SDS011;32921;53.256;8.198;2022-08-25T08:25:00;15.05;;;8.10;;
47161;SDS011;32921;53.256;8.198;2022-08-25T08:27:26;13.48;;;7.88;;
47161;SDS011;32921;53.256;8.198;2022-08-25T08:29:52;14.20;;;7.63;;
47161;SDS011;32921;53.256;8.198;2022-08-25T08:32:18;15.25;;;7.50;;
47161;SDS011;32921;53.256;8.198;2022-08-25T08:34:44;14.32;;;7.40;;
47161;SDS011;32921;53.256;8.198;2022-08-25T08:37:11;14.95;;;8.07;;
47161;SDS011;32921;53.256;8.198;2022-08-25T08:39:37;18.30;;;8.13;;
47161;SDS011;32921;53.256;8.198;2022-08-25T08:53:21;16.42;;;7.18;;
47161;SDS011;32921;53.256;8.198;2022-08-25T08:56:00;15.75;;;7.57;;
47161;SDS011;32921;53.256;8.198;2022-08-25T09:01:06;19.10;;;7.10;;
47161;SDS011;32921;53.256;8.198;2022-08-25T09:03:36;8.25;;;6.40;;
47161;SDS011;32921;53.256;8.198;2022-08-25T09:06:11;14.80;;;6.85;;
47161;SDS011;32921;53.256;8.198;2022-08-25T09:08:56;12.82;;;7.07;;
47161;SDS011;32921;53.256;8.198;2022-08-25T09:16:46;12.68;;;7.05;;
47161;SDS011;32921;53.256;8.198;2022-08-25T09:19:30;11.82;;;6.97;;
47161;SDS011;32921;53.256;8.198;2022-08-25T09:30:14;9.63;;;5.90;;
47161;SDS011;32921;53.256;8.198;2022-08-25T09:32:46;14.40;;;7.00;;
47161;SDS011;32921;53.256;8.198;2022-08-25T09:35:24;11.23;;;7.60;;
47161;SDS011;32921;53.256;8.198;2022-08-25T09:37:56;11.82;;;6.35;;
47161;SDS011;32921;53.256;8.198;2022-08-25T09:40:24;13.50;;;6.13;;
47161;SDS011;32921;53.256;8.198;2022-08-25T09:42:52;12.10;;;6.30;;
47161;SDS011;32921;53.256;8.198;2022-08-25T09:48:18;13.73;;;6.80;;
47161;SDS011;32921;53.256;8.198;2022-08-25T09:50:45;13.18;;;6.55;;
47161;SDS011;32921;53.256;8.198;2022-08-25T09:53:12;11.60;;;6.25;;
47161;SDS011;32921;53.256;8.198;2022-08-25T09:55:40;12.77;;;7.38;;
47161;SDS011;32921;53.256;8.198;2022-08-25T09:58:13;11.60;;;6.38;;
47161;SDS011;32921;53.256;8.198;2022-08-25T10:00:42;10.63;;;6.20;;
47161;SDS011;32921;53.256;8.198;2022-08-25T10:03:09;15.35;;;6.68;;
47161;SDS011;32921;53.256;8.198;2022-08-25T10:05:55;9.52;;;5.75;;
47161;SDS011;32921;53.256;8.198;2022-08-25T10:08:24;9.43;;;5.80;;
47161;SDS011;32921;53.256;8.198;2022-08-25T10:10:59;10.10;;;5.70;;
47161;SDS011;32921;53.256;8.198;2022-08-25T10:13:36;10.70;;;5.22;;
47161;SDS011;32921;53.256;8.198;2022-08-25T10:19:09;10.25;;;5.55;;
47161;SDS011;32921;53.256;8.198;2022-08-25T10:24:30;10.82;;;5.07;;
47161;SDS011;32921;53.256;8.198;2022-08-25T10:32:19;8.90;;;4.72;;
47161;SDS011;32921;53.256;8.198;2022-08-25T10:36:13;8.32;;;4.53;;
47161;SDS011;32921;53.256;8.198;2022-08-25T10:51:38;11.60;;;5.43;;
47161;SDS011;32921;53.256;8.198;2022-08-25T10:59:41;9.82;;;6.13;;
47161;SDS011;32921;53.256;8.198;2022-08-25T11:04:49;8.98;;;5.43;;
47161;SDS011;32921;53.256;8.198;2022-08-25T11:07:44;12.85;;;5.82;;
47161;SDS011;32921;53.256;8.198;2022-08-25T11:13:32;10.15;;;5.57;;
47161;SDS011;32921;53.256;8.198;2022-08-25T11:16:14;10.48;;;5.82;;
47161;SDS011;32921;53.256;8.198;2022-08-25T11:18:49;9.40;;;5.15;;
47161;SDS011;32921;53.256;8.198;2022-08-25T11:21:30;12.25;;;5.10;;
47161;SDS011;32921;53.256;8.198;2022-08-25T11:24:17;10.43;;;5.20;;
47161;SDS011;32921;53.256;8.198;2022-08-25T11:27:03;11.30;;;5.57;;
47161;SDS011;32921;53.256;8.198;2022-08-25T11:29:33;9.63;;;5.35;;
47161;SDS011;32921;53.256;8.198;2022-08-25T11:32:01;11.23;;;5.18;;
47161;SDS011;32921;53.256;8.198;2022-08-25T11:34:31;9.93;;;6.03;;
47161;SDS011;32921;53.256;8.198;2022-08-25T11:37:00;9.30;;;5.45;;
47161;SDS011;32921;53.256;8.198;2022-08-25T11:39:38;7.47;;;5.10;;
47161;SDS011;32921;53.256;8.198;2022-08-25T11:57:30;11.43;;;4.43;;
47161;SDS011;32921;53.256;8.198;2022-08-25T12:00:06;9.50;;;4.95;;
47161;SDS011;32921;53.256;8.198;2022-08-25T12:02:36;5.80;;;3.72;;
47161;SDS011;32921;53.256;8.198;2022-08-25T12:10:21;8.77;;;4.30;;
47161;SDS011;32921;53.256;8.198;2022-08-25T12:18:14;10.75;;;5.05;;
47161;SDS011;32921;53.256;8.198;2022-08-25T12:23:39;11.43;;;4.30;;
47161;SDS011;32921;53.256;8.198;2022-08-25T12:31:56;8.80;;;4.03;;
47161;SDS011;32921;53.256;8.198;2022-08-25T12:37:27;8.45;;;3.80;;
47161;SDS011;32921;53.256;8.198;2022-08-25T12:39:57;9.68;;;3.60;;
47161;SDS011;32921;53.256;8.198;2022-08-25T12:47:51;9.10;;;4.03;;
47161;SDS011;32921;53.256;8.198;2022-08-25T12:56:00;6.28;;;3.53;;
47161;SDS011;32921;53.256;8.198;2022-08-25T12:58:36;6.82;;;3.22;;
47161;SDS011;32921;53.256;8.198;2022-08-25T13:01:51;8.07;;;3.83;;
47161;SDS011;32921;53.256;8.198;2022-08-25T13:04:53;10.38;;;4.10;;
47161;SDS011;32921;53.256;8.198;2022-08-25T13:12:50;8.10;;;3.50;;
47161;SDS011;32921;53.256;8.198;2022-08-25T13:15:40;9.60;;;3.72;;
47161;SDS011;32921;53.256;8.198;2022-08-25T13:18:27;6.78;;;3.20;;
47161;SDS011;32921;53.256;8.198;2022-08-25T13:21:11;8.10;;;3.42;;
47161;SDS011;32921;53.256;8.198;2022-08-25T13:23:50;5.85;;;3.35;;
47161;SDS011;32921;53.256;8.198;2022-08-25T13:26:28;9.95;;;3.33;;
47161;SDS011;32921;53.256;8.198;2022-08-25T13:28:57;7.68;;;3.72;;
47161;SDS011;32921;53.256;8.198;2022-08-25T13:31:36;8.75;;;3.50;;
47161;SDS011;32921;53.256;8.198;2022-08-25T13:34:04;7.53;;;3.40;;
47161;SDS011;32921;53.256;8.198;2022-08-25T13:36:43;8.60;;;3.63;;
47161;SDS011;32921;53.256;8.198;2022-08-25T13:39:28;8.70;;;3.60;;
47161;SDS011;32921;53.256;8.198;2022-08-25T13:41:57;6.78;;;3.47;;
47161;SDS011;32921;53.256;8.198;2022-08-25T13:44:25;4.90;;;3.40;;
47161;SDS011;32921;53.256;8.198;2022-08-25T13:49:45;8.80;;;3.92;;
47161;SDS011;32921;53.256;8.198;2022-08-25T13:52:32;8.43;;;3.92;;
47161;SDS011;32921;53.256;8.198;2022-08-25T13:54:58;9.35;;;3.70;;
47161;SDS011;32921;53.256;8.198;2022-08-25T13:57:26;9.27;;;3.80;;
47161;SDS011;32921;53.256;8.198;2022-08-25T13:59:55;10.00;;;3.70;;
47161;SDS011;32921;53.256;8.198;2022-08-25T14:05:03;7.38;;;3.95;;
47161;SDS011;32921;53.256;8.198;2022-08-25T14:07:29;6.70;;;3.60;;
47161;SDS011;32921;53.256;8.198;2022-08-25T14:12:45;8.68;;;3.80;;
47161;SDS011;32921;53.256;8.198;2022-08-25T14:17:41;8.30;;;3.90;;
47161;SDS011;32921;53.256;8.198;2022-08-25T14:20:20;8.30;;;4.05;;
47161;SDS011;32921;53.256;8.198;2022-08-25T14:22:56;9.82;;;3.90;;
47161;SDS011;32921;53.256;8.198;2022-08-25T14:25:25;10.63;;;4.30;;
47161;SDS011;32921;53.256;8.198;2022-08-25T14:27:55;13.27;;;4.82;;
47161;SDS011;32921;53.256;8.198;2022-08-25T14:30:22;8.48;;;4.30;;
47161;SDS011;32921;53.256;8.198;2022-08-25T14:32:48;9.38;;;4.63;;
47161;SDS011;32921;53.256;8.198;2022-08-25T14:35:15;13.00;;;4.90;;
47161;SDS011;32921;53.256;8.198;2022-08-25T14:37:42;8.23;;;4.55;;
47161;SDS011;32921;53.256;8.198;2022-08-25T14:40:09;8.25;;;4.45;;
47161;SDS011;32921;53.256;8.198;2022-08-25T14:42:38;11.05;;;4.18;;
47161;SDS011;32921;53.256;8.198;2022-08-25T14:45:04;8.05;;;4.32;;
47161;SDS011;32921;53.256;8.198;2022-08-25T14:47:30;7.15;;;4.13;;
47161;SDS011;32921;53.256;8.198;2022-08-25T14:49:56;10.35;;;4.75;;
47161;SDS011;32921;53.256;8.198;2022-08-25T14:52:26;13.18;;;4.68;;
47161;SDS011;32921;53.256;8.198;2022-08-25T14:54:54;9.90;;;4.07;;
47161;SDS011;32921;53.256;8.198;2022-08-25T14:57:23;8.40;;;4.50;;
47161;SDS011;32921;53.256;8.198;2022-08-25T14:59:49;10.07;;;4.80;;
47161;SDS011;32921;53.256;8.198;2022-08-25T15:02:16;11.70;;;4.90;;
47161;SDS011;32921;53.256;8.198;2022-08-25T15:04:49;11.20;;;4.45;;
47161;SDS011;32921;53.256;8.198;2022-08-25T15:07:21;14.38;;;4.95;;
47161;SDS011;32921;53.256;8.198;2022-08-25T15:10:06;13.25;;;4.47;;
47161;SDS011;32921;53.256;8.198;2022-08-25T15:12:32;10.57;;;4.55;;
47161;SDS011;32921;53.256;8.198;2022-08-25T15:14:58;10.10;;;4.25;;
47161;SDS011;32921;53.256;8.198;2022-08-25T15:17:25;7.47;;;4.50;;
47161;SDS011;32921;53.256;8.198;2022-08-25T15:19:51;8.88;;;4.63;;
47161;SDS011;32921;53.256;8.198;2022-08-25T15:22:17;7.97;;;3.97;;
47161;SDS011;32921;53.256;8.198;2022-08-25T15:24:42;9.57;;;4.65;;
47161;SDS011;32921;53.256;8.198;2022-08-25T15:27:08;9.35;;;4.50;;
47161;SDS011;32921;53.256;8.198;2022-08-25T15:29:34;9.88;;;4.43;;
47161;SDS011;32921;53.256;8.198;2022-08-25T15:32:01;13.30;;;4.93;;
47161;SDS011;32921;53.256;8.198;2022-08-25T15:34:28;11.18;;;4.90;;
47161;SDS011;32921;53.256;8.198;2022-08-25T15:36:55;13.00;;;4.40;;
47161;SDS011;32921;53.256;8.198;2022-08-25T15:39:22;10.30;;;4.30;;
47161;SDS011;32921;53.256;8.198;2022-08-25T15:45:10;7.70;;;4.05;;
47161;SDS011;32921;53.256;8.198;2022-08-25T15:47:36;9.18;;;4.32;;
47161;SDS011;32921;53.256;8.198;2022-08-25T15:50:06;6.50;;;4.20;;
47161;SDS011;32921;53.256;8.198;2022-08-25T15:52:34;7.30;;;4.13;;
47161;SDS011;32921;53.256;8.198;2022-08-25T15:55:00;9.70;;;4.22;;
47161;SDS011;32921;53.256;8.198;2022-08-25T15:57:25;9.75;;;4.50;;
47161;SDS011;32921;53.256;8.198;2022-08-25T15:59:51;10.75;;;4.40;;
47161;SDS011;32921;53.256;8.198;2022-08-25T16:02:17;11.27;;;5.00;;
47161;SDS011;32921;53.256;8.198;2022-08-25T16:04:42;10.60;;;4.45;;
47161;SDS011;32921;53.256;8.198;2022-08-25T16:07:09;16.38;;;4.80;;
47161;SDS011;32921;53.256;8.198;2022-08-25T16:09:34;7.53;;;3.95;;
47161;SDS011;32921;53.256;8.198;2022-08-25T16:12:00;12.60;;;4.97;;
47161;SDS011;32921;53.256;8.198;2022-08-25T16:14:26;11.98;;;4.50;;
47161;SDS011;32921;53.256;8.198;2022-08-25T16:16:52;10.52;;;4.65;;
47161;SDS011;32921;53.256;8.198;2022-08-25T16:19:18;14.60;;;5.10;;
47161;SDS011;32921;53.256;8.198;2022-08-25T16:21:43;12.00;;;4.55;;
47161;SDS011;32921;53.256;8.198;2022-08-25T16:24:09;11.48;;;4.78;;
47161;SDS011;32921;53.256;8.198;2022-08-25T16:26:35;15.18;;;4.53;;
47161;SDS011;32921;53.256;8.198;2022-08-25T16:29:03;9.45;;;4.05;;
47161;SDS011;32921;53.256;8.198;2022-08-25T16:31:29;8.18;;;4.40;;
47161;SDS011;32921;53.256;8.198;2022-08-25T16:33:54;9.52;;;4.40;;
47161;SDS011;32921;53.256;8.198;2022-08-25T16:36:21;10.38;;;4.40;;
47161;SDS011;32921;53.256;8.198;2022-08-25T16:38:48;11.13;;;4.20;;
47161;SDS011;32921;53.256;8.198;2022-08-25T16:41:16;9.70;;;4.57;;
47161;SDS011;32921;53.256;8.198;2022-08-25T16:43:44;12.60;;;5.00;;
47161;SDS011;32921;53.256;8.198;2022-08-25T16:46:12;8.43;;;5.00;;
47161;SDS011;32921;53.256;8.198;2022-08-25T16:48:40;11.25;;;5.07;;
47161;SDS011;32921;53.256;8.198;2022-08-25T16:51:07;10.93;;;5.30;;
47161;SDS011;32921;53.256;8.198;2022-08-25T16:53:34;12.18;;;5.30;;
47161;SDS011;32921;53.256;8.198;2022-08-25T16:56:18;11.00;;;5.10;;
47161;SDS011;32921;53.256;8.198;2022-08-25T16:58:52;11.13;;;5.13;;
47161;SDS011;32921;53.256;8.198;2022-08-25T17:01:19;11.85;;;5.53;;
47161;SDS011;32921;53.256;8.198;2022-08-25T17:03:46;9.30;;;5.07;;
47161;SDS011;32921;53.256;8.198;2022-08-25T17:06:12;9.48;;;5.22;;
47161;SDS011;32921;53.256;8.198;2022-08-25T17:08:38;13.68;;;5.53;;
47161;SDS011;32921;53.256;8.198;2022-08-25T17:11:08;15.05;;;5.47;;